- বাংলা English

****Maritime Ports of Chittagong, Cox'sbazar, Mongla and Payra have been advised local cautionary signal no three (R) three.**** Phone: +880 2 9135742, 9123838, 9141437 ## Fax: +880 2 8118230, 9119230, 9103908 ## e-mail: info@bmd.gov.bd, swc@bmd.gov.bd

TAF

TAF VGHS 201700Z 2018/2124 16010KT 3500 HZ SCT012 BKN100
TEMPO 2018/2109 16025KT 2000 RA/TSRA BKN007 FEW025CB OVC090
BECMG 2109/2111 14010KT 4000 HZ SCT015 BKN100=

TAF VGEG 201100Z 2012/2118 17008/12KT 3500 HZ SCT014 BKN100
  TEMPO 2014/2018 17015G25KT 1500 RA/TSRA BKN007 FEW025CB OVC090
  BECMG 2018/2020 14006KT 3200 HZ SCT014 BKN100
  TEMPO 2100/2104 14015/25KT 1500 RA/TSRA BKN007 FEW025CB OVC080
  BECMG 2104/2106 18010/15KT 4000 HZ SCT015 SCT100=

TAF VGSY 201000Z 2012/2118 16005KT 4500 HZ SCT015 BKN100
BECMG 2018/2020 06004KT 4000 HZ SCT015 BKN100
BECMG 2023/2101 04004KT 3500 HZ SCT012 BKN100
TEMPO 2012/2118 32025G35KT 1500RA/TSRA BKN006 FEW025CB OVC080=